createdAt,value
2022-09-23T00:02:18.180Z,7.38
2022-09-23T00:04:44.561Z,6.85
2022-09-23T00:07:10.888Z,7.15
2022-09-23T00:09:37.241Z,6.70
2022-09-23T00:12:08.658Z,6.90
2022-09-23T00:14:36.473Z,6.57
2022-09-23T00:17:02.873Z,7.22
2022-09-23T00:19:29.523Z,6.90
2022-09-23T00:21:56.737Z,6.85
2022-09-23T00:24:23.755Z,6.88
2022-09-23T00:26:50.039Z,6.43
2022-09-23T00:29:16.708Z,7.60
2022-09-23T00:31:43.144Z,7.20
2022-09-23T00:34:11.598Z,7.40
2022-09-23T00:36:40.403Z,6.22
2022-09-23T00:39:06.936Z,6.32
2022-09-23T00:41:35.062Z,5.95
2022-09-23T00:44:02.682Z,6.18
2022-09-23T00:46:41.230Z,6.32
2022-09-23T00:49:15.525Z,6.68
2022-09-23T00:51:46.670Z,6.47
2022-09-23T00:54:13.452Z,6.70
2022-09-23T00:56:40.179Z,6.53
2022-09-23T00:59:07.656Z,6.88
2022-09-23T01:01:34.135Z,6.07
2022-09-23T01:04:00.510Z,6.93
2022-09-23T01:06:26.876Z,6.63
2022-09-23T01:08:53.371Z,6.85
2022-09-23T01:11:38.413Z,6.53
2022-09-23T01:14:10.892Z,7.03
2022-09-23T01:16:59.159Z,6.55
2022-09-23T01:19:43.529Z,5.78
2022-09-23T01:22:13.622Z,6.45
2022-09-23T01:24:46.351Z,6.47
2022-09-23T01:27:19.290Z,6.35
2022-09-23T01:30:16.721Z,6.55
2022-09-23T01:32:43.255Z,6.45
2022-09-23T01:35:22.571Z,7.10
2022-09-23T01:37:48.880Z,6.65
2022-09-23T01:40:15.204Z,6.35
2022-09-23T01:42:44.410Z,6.30
2022-09-23T01:45:12.644Z,6.60
2022-09-23T01:47:44.645Z,6.25
2022-09-23T01:50:47.269Z,6.10
2022-09-23T01:53:18.181Z,5.82
2022-09-23T01:55:48.353Z,6.18
2022-09-23T01:58:18.764Z,6.68
2022-09-23T02:00:57.645Z,5.85
2022-09-23T02:03:39.309Z,6.60
2022-09-23T02:06:16.074Z,5.80
2022-09-23T02:08:49.001Z,6.68
2022-09-23T02:11:18.484Z,6.50
2022-09-23T02:13:44.821Z,6.50
2022-09-23T02:16:21.770Z,6.35
2022-09-23T02:18:53.198Z,6.13
2022-09-23T02:21:21.681Z,7.10
2022-09-23T02:24:01.151Z,6.65
2022-09-23T02:26:33.803Z,6.05
2022-09-23T02:29:09.039Z,6.22
2022-09-23T02:31:57.143Z,6.15
2022-09-23T02:34:29.511Z,5.75
2022-09-23T02:37:11.698Z,5.75
2022-09-23T02:39:41.704Z,5.43
2022-09-23T02:42:12.884Z,6.55
2022-09-23T02:44:42.043Z,6.30
2022-09-23T02:47:08.495Z,6.00
2022-09-23T02:49:36.528Z,6.28
2022-09-23T02:52:04.663Z,5.90
2022-09-23T02:54:33.498Z,6.22
2022-09-23T02:57:05.466Z,5.97
2022-09-23T02:59:32.343Z,6.07
2022-09-23T03:02:01.729Z,6.20
2022-09-23T03:04:50.511Z,5.53
2022-09-23T03:07:18.942Z,5.82
2022-09-23T03:09:58.094Z,5.90
2022-09-23T03:12:36.074Z,6.43
2022-09-23T03:15:05.603Z,6.60
2022-09-23T03:17:34.894Z,6.47
2022-09-23T03:20:04.598Z,6.28
2022-09-23T03:22:37.797Z,6.13
2022-09-23T03:25:09.581Z,5.85
2022-09-23T03:27:37.047Z,6.00
2022-09-23T03:30:04.773Z,5.90
2022-09-23T03:32:32.912Z,6.50
2022-09-23T03:35:00.449Z,6.00
2022-09-23T03:37:39.348Z,6.40
2022-09-23T03:40:08.642Z,6.22
2022-09-23T03:42:36.655Z,6.20
2022-09-23T03:45:07.240Z,7.15
2022-09-23T03:47:33.660Z,6.15
2022-09-23T03:50:00.087Z,5.90
2022-09-23T03:52:26.538Z,6.47
2022-09-23T03:54:52.975Z,6.05
2022-09-23T03:57:22.213Z,5.80
2022-09-23T03:59:50.503Z,5.95
2022-09-23T04:02:17.378Z,6.30
2022-09-23T04:04:44.092Z,5.90
2022-09-23T04:07:11.300Z,6.07
2022-09-23T04:09:37.938Z,5.75
2022-09-23T04:12:04.860Z,5.55
2022-09-23T04:14:31.414Z,6.07
2022-09-23T04:16:57.837Z,6.20
2022-09-23T04:19:24.174Z,6.15
2022-09-23T04:21:50.485Z,5.90
2022-09-23T04:24:16.964Z,5.55
2022-09-23T04:26:44.030Z,5.75
2022-09-23T04:29:10.987Z,5.97
2022-09-23T04:31:37.355Z,5.28
2022-09-23T04:34:03.922Z,4.72
2022-09-23T04:36:30.383Z,6.00
2022-09-23T04:38:57.325Z,5.13
2022-09-23T04:41:23.670Z,5.43
2022-09-23T04:43:49.959Z,5.25
2022-09-23T04:46:16.667Z,5.50
2022-09-23T04:48:43.181Z,5.18
2022-09-23T04:51:10.697Z,5.30
2022-09-23T04:53:37.655Z,4.68
2022-09-23T04:56:09.829Z,4.93
2022-09-23T04:58:36.558Z,5.00
2022-09-23T05:01:24.306Z,5.72
2022-09-23T05:03:51.705Z,5.40
2022-09-23T05:06:18.102Z,4.38
2022-09-23T05:08:48.589Z,4.80
2022-09-23T05:11:14.899Z,5.20
2022-09-23T05:13:41.334Z,5.57
2022-09-23T05:16:09.906Z,5.38
2022-09-23T05:18:37.548Z,5.97
2022-09-23T05:21:04.153Z,6.65
2022-09-23T05:23:30.673Z,7.50
2022-09-23T05:26:01.076Z,7.35
2022-09-23T05:28:29.942Z,6.75
2022-09-23T05:31:04.387Z,6.50
2022-09-23T05:33:31.488Z,6.72
2022-09-23T05:35:58.044Z,6.25
2022-09-23T05:38:24.431Z,6.60
2022-09-23T05:40:57.494Z,6.15
2022-09-23T05:43:24.658Z,6.43
2022-09-23T05:45:51.211Z,7.10
2022-09-23T05:48:17.678Z,6.60
2022-09-23T05:50:50.597Z,6.57
2022-09-23T05:53:16.982Z,6.05
2022-09-23T05:55:43.337Z,7.00
2022-09-23T05:58:09.619Z,7.03
2022-09-23T06:00:35.971Z,7.15
2022-09-23T06:03:02.317Z,7.78
2022-09-23T06:05:28.816Z,7.68
2022-09-23T06:07:55.109Z,8.02
2022-09-23T06:10:21.405Z,7.53
2022-09-23T06:12:47.707Z,8.48
2022-09-23T06:15:16.046Z,7.80
2022-09-23T06:17:42.414Z,7.53
2022-09-23T06:20:08.950Z,8.38
2022-09-23T06:22:38.536Z,7.95
2022-09-23T06:25:05.975Z,6.80
2022-09-23T06:27:32.245Z,7.60
2022-09-23T06:29:59.802Z,7.45
2022-09-23T06:32:26.068Z,6.70
2022-09-23T06:34:52.602Z,6.82
2022-09-23T06:37:20.615Z,6.57
2022-09-23T06:39:47.284Z,7.25
2022-09-23T06:42:13.631Z,6.97
2022-09-23T06:44:40.009Z,6.55
2022-09-23T06:47:06.334Z,6.68
2022-09-23T06:49:33.738Z,6.47
2022-09-23T06:52:00.461Z,6.50
2022-09-23T06:54:32.288Z,6.28
2022-09-23T06:56:58.634Z,6.82
2022-09-23T06:59:24.942Z,6.45
2022-09-23T07:01:51.425Z,6.40
2022-09-23T07:04:17.887Z,5.60
2022-09-23T07:06:44.229Z,5.82
2022-09-23T07:09:11.093Z,6.03
2022-09-23T07:11:37.810Z,5.40
2022-09-23T07:14:04.190Z,5.50
2022-09-23T07:16:31.672Z,5.32
2022-09-23T07:18:58.088Z,5.22
2022-09-23T07:21:24.466Z,5.20
2022-09-23T07:23:51.708Z,5.72
2022-09-23T07:26:18.928Z,5.15
2022-09-23T07:28:45.734Z,4.82
2022-09-23T07:31:13.533Z,5.13
2022-09-23T07:33:43.699Z,4.72
2022-09-23T07:36:11.565Z,5.10
2022-09-23T07:38:41.648Z,4.43
2022-09-23T07:41:13.034Z,4.30
2022-09-23T07:43:39.712Z,4.65
2022-09-23T07:46:11.089Z,4.60
2022-09-23T07:48:38.093Z,4.38
2022-09-23T07:51:16.674Z,4.38
2022-09-23T07:53:43.331Z,4.28
2022-09-23T07:56:09.992Z,4.35
2022-09-23T07:58:36.390Z,4.00
2022-09-23T08:01:07.420Z,3.40
2022-09-23T08:03:33.852Z,4.20
2022-09-23T08:06:11.171Z,3.50
2022-09-23T08:08:40.449Z,3.80
2022-09-23T08:11:07.759Z,3.97
2022-09-23T08:13:35.465Z,3.38
2022-09-23T08:16:02.037Z,2.95
2022-09-23T08:18:28.616Z,2.63
2022-09-23T08:20:54.948Z,2.70
2022-09-23T08:23:21.318Z,1.75
2022-09-23T08:25:47.810Z,2.20
2022-09-23T08:28:18.407Z,2.20
2022-09-23T08:30:45.137Z,1.65
2022-09-23T08:33:11.778Z,1.60
2022-09-23T08:35:38.241Z,1.55
2022-09-23T08:38:04.843Z,1.55
2022-09-23T08:40:33.448Z,1.65
2022-09-23T08:43:00.143Z,1.48
2022-09-23T08:45:27.469Z,1.60
2022-09-23T08:47:57.717Z,1.38
2022-09-23T08:50:27.073Z,1.30
2022-09-23T08:52:58.716Z,1.58
2022-09-23T08:55:32.595Z,1.40
2022-09-23T08:58:26.852Z,1.40
2022-09-23T09:01:08.768Z,1.60
2022-09-23T09:03:55.380Z,1.10
2022-09-23T09:06:27.266Z,1.30
2022-09-23T09:09:04.175Z,1.25
2022-09-23T09:11:35.556Z,1.30
2022-09-23T09:14:17.324Z,1.20
2022-09-23T09:17:06.222Z,1.38
2022-09-23T09:19:35.853Z,1.30
2022-09-23T09:22:05.867Z,1.00
2022-09-23T09:24:34.426Z,1.30
2022-09-23T09:27:02.177Z,0.90
2022-09-23T09:29:35.265Z,0.85
2022-09-23T09:32:10.936Z,0.60
2022-09-23T09:34:43.626Z,0.88
2022-09-23T09:37:20.577Z,0.75
2022-09-23T09:39:46.871Z,0.80
2022-09-23T09:42:18.519Z,0.88
2022-09-23T09:44:55.411Z,1.10
2022-09-23T09:47:30.790Z,1.23
2022-09-23T09:50:03.718Z,0.98
2022-09-23T09:52:30.241Z,0.80
2022-09-23T09:55:14.885Z,1.08
2022-09-23T09:58:05.796Z,0.90
2022-09-23T10:00:42.765Z,0.95
2022-09-23T10:03:15.079Z,0.95
2022-09-23T10:05:45.060Z,0.80
2022-09-23T10:08:26.808Z,1.23
2022-09-23T10:10:59.319Z,0.85
2022-09-23T10:13:26.489Z,1.10
2022-09-23T10:15:54.881Z,0.98
2022-09-23T10:18:27.462Z,1.17
2022-09-23T10:20:59.550Z,0.82
2022-09-23T10:23:28.130Z,1.10
2022-09-23T10:26:00.125Z,0.88
2022-09-23T10:28:39.110Z,0.90
2022-09-23T10:31:05.600Z,1.00
2022-09-23T10:33:31.958Z,0.90
2022-09-23T10:35:58.498Z,0.90
2022-09-23T10:38:27.452Z,0.90
2022-09-23T10:41:13.122Z,0.85
2022-09-23T10:43:58.189Z,0.88
2022-09-23T10:46:41.206Z,0.80
2022-09-23T10:49:12.213Z,0.88
2022-09-23T10:51:47.681Z,0.80
2022-09-23T10:54:20.089Z,0.95
2022-09-23T10:57:02.411Z,0.80
2022-09-23T10:59:41.384Z,0.93
2022-09-23T11:02:17.090Z,0.82
2022-09-23T11:04:52.858Z,1.00
2022-09-23T11:07:27.733Z,1.30
2022-09-23T11:09:57.027Z,1.05
2022-09-23T11:12:24.040Z,1.17
2022-09-23T11:14:50.318Z,0.90
2022-09-23T11:17:35.278Z,1.10
2022-09-23T11:20:09.667Z,1.00
2022-09-23T11:22:38.703Z,0.80
2022-09-23T11:25:05.256Z,0.85
2022-09-23T11:27:49.671Z,0.90
2022-09-23T11:30:17.942Z,0.90
2022-09-23T11:35:38.937Z,0.95
2022-09-23T11:38:12.011Z,0.80
2022-09-23T11:40:43.951Z,1.20
2022-09-23T11:43:19.248Z,1.70
2022-09-23T11:45:54.078Z,0.90
2022-09-23T11:48:23.944Z,0.80
2022-09-23T11:50:54.687Z,1.05
2022-09-23T11:53:23.771Z,0.70
2022-09-23T11:56:10.357Z,0.93
2022-09-23T11:58:43.833Z,0.80
2022-09-23T12:01:32.932Z,0.80
2022-09-23T12:04:17.161Z,1.08
2022-09-23T12:06:50.396Z,1.10
2022-09-23T12:09:53.979Z,0.73
2022-09-23T12:12:26.972Z,0.90
2022-09-23T12:15:16.889Z,0.90
2022-09-23T12:17:46.551Z,0.90
2022-09-23T12:20:31.442Z,0.80
2022-09-23T12:23:10.827Z,0.80
2022-09-23T12:25:39.796Z,1.00
2022-09-23T12:28:15.511Z,0.90
2022-09-23T12:30:42.412Z,0.90
2022-09-23T12:33:21.543Z,0.85
2022-09-23T12:35:48.100Z,1.10
2022-09-23T12:38:18.376Z,1.10
2022-09-23T12:40:44.909Z,1.00
2022-09-23T12:43:30.772Z,0.90
2022-09-23T12:46:17.481Z,0.93
2022-09-23T12:48:47.725Z,1.30
2022-09-23T12:51:20.868Z,0.88
2022-09-23T12:53:47.197Z,1.15
2022-09-23T12:56:16.551Z,1.05
2022-09-23T12:58:42.900Z,1.15
2022-09-23T13:01:15.856Z,1.10
2022-09-23T13:04:21.375Z,1.15
2022-09-23T13:06:50.780Z,1.00
2022-09-23T13:09:20.025Z,1.10
2022-09-23T13:11:48.016Z,1.23
2022-09-23T13:14:26.611Z,1.10
2022-09-23T13:16:54.208Z,1.08
2022-09-23T13:19:26.632Z,0.73
2022-09-23T13:22:02.727Z,0.90
2022-09-23T13:24:49.543Z,0.90
2022-09-23T13:27:24.419Z,1.42
2022-09-23T13:30:07.735Z,1.00
2022-09-23T13:32:43.867Z,0.90
2022-09-23T13:35:13.229Z,1.00
2022-09-23T13:37:42.791Z,0.90
2022-09-23T13:40:10.399Z,0.88
2022-09-23T13:42:39.926Z,0.82
2022-09-23T13:45:13.110Z,0.98
2022-09-23T13:47:41.792Z,0.90
2022-09-23T13:50:14.507Z,0.80
2022-09-23T13:52:41.599Z,1.00
2022-09-23T13:55:23.454Z,0.90
2022-09-23T13:57:56.825Z,0.90
2022-09-23T14:00:24.654Z,0.93
2022-09-23T14:02:52.934Z,0.90
2022-09-23T14:05:23.646Z,0.90
2022-09-23T14:07:50.986Z,1.10
2022-09-23T14:10:20.807Z,0.98
2022-09-23T14:12:48.728Z,0.70
2022-09-23T14:15:16.255Z,0.80
2022-09-23T14:17:46.081Z,0.98
2022-09-23T14:20:17.247Z,1.00
2022-09-23T14:22:43.706Z,1.17
2022-09-23T14:25:13.655Z,0.98
2022-09-23T14:27:41.005Z,1.10
2022-09-23T14:30:13.714Z,0.90
2022-09-23T14:32:40.304Z,1.15
2022-09-23T14:35:16.399Z,1.15
2022-09-23T14:38:01.960Z,1.20
2022-09-23T14:40:32.514Z,1.08
2022-09-23T14:43:04.393Z,1.20
2022-09-23T14:45:33.005Z,1.00
2022-09-23T14:48:00.882Z,0.95
2022-09-23T14:50:43.690Z,1.20
2022-09-23T14:53:31.536Z,1.15
2022-09-23T14:56:07.224Z,1.20
2022-09-23T15:03:28.402Z,1.20
2022-09-23T15:06:07.683Z,1.40
2022-09-23T15:08:35.300Z,1.30
2022-09-23T15:11:08.125Z,1.27
2022-09-23T15:13:37.963Z,1.30
2022-09-23T15:16:05.570Z,1.05
2022-09-23T15:18:36.292Z,1.30
2022-09-23T15:21:07.370Z,1.35
2022-09-23T15:23:43.048Z,1.55
2022-09-23T15:33:31.049Z,1.30
2022-09-23T15:35:58.159Z,1.25
2022-09-23T15:38:26.740Z,1.30
2022-09-23T15:40:54.206Z,1.40
2022-09-23T15:43:22.631Z,1.10
2022-09-23T15:45:52.898Z,1.05
2022-09-23T15:48:22.718Z,1.20
2022-09-23T15:50:52.435Z,1.00
2022-09-23T15:53:28.001Z,1.10
2022-09-23T15:55:54.447Z,1.33
2022-09-23T15:58:25.169Z,1.42
2022-09-23T16:00:56.336Z,1.45
2022-09-23T16:03:28.633Z,1.20
2022-09-23T16:06:01.846Z,1.67
2022-09-23T16:08:29.080Z,1.55
2022-09-23T16:10:55.751Z,1.63
2022-09-23T16:13:22.138Z,1.42
2022-09-23T16:15:48.613Z,1.38
2022-09-23T16:18:14.990Z,1.48
2022-09-23T16:20:42.746Z,1.48
2022-09-23T16:23:14.720Z,1.52
2022-09-23T16:25:41.063Z,1.52
2022-09-23T16:28:07.933Z,2.40
2022-09-23T16:30:34.391Z,1.95
2022-09-23T16:33:01.856Z,1.60
2022-09-23T16:35:29.221Z,1.70
2022-09-23T16:37:55.972Z,2.75
2022-09-23T16:40:23.133Z,1.70
2022-09-23T16:42:50.322Z,2.00
2022-09-23T16:45:18.300Z,2.60
2022-09-23T16:47:45.295Z,1.90
2022-09-23T16:50:12.367Z,1.65
2022-09-23T16:52:38.828Z,1.75
2022-09-23T16:55:05.535Z,1.80
2022-09-23T16:57:31.971Z,1.92
2022-09-23T17:00:16.893Z,2.03
2022-09-23T17:03:01.900Z,1.73
2022-09-23T17:05:28.266Z,1.55
2022-09-23T17:07:54.813Z,2.03
2022-09-23T17:10:21.435Z,1.80
2022-09-23T17:12:47.737Z,2.55
2022-09-23T17:15:14.121Z,2.08
2022-09-23T17:17:40.435Z,2.13
2022-09-23T17:20:07.051Z,2.33
2022-09-23T17:22:33.950Z,2.30
2022-09-23T17:25:01.772Z,2.67
2022-09-23T17:27:28.145Z,3.15
2022-09-23T17:29:54.543Z,3.30
2022-09-23T17:32:20.963Z,3.20
2022-09-23T17:34:47.255Z,3.53
2022-09-23T17:37:13.939Z,3.88
2022-09-23T17:39:42.355Z,3.42
2022-09-23T17:42:09.630Z,4.03
2022-09-23T17:44:36.293Z,3.92
2022-09-23T17:47:03.690Z,3.95
2022-09-23T17:49:37.834Z,3.90
2022-09-23T17:52:05.544Z,4.38
2022-09-23T17:54:32.533Z,4.40
2022-09-23T17:56:59.838Z,4.28
2022-09-23T17:59:26.646Z,4.20
2022-09-23T18:01:53.308Z,4.70
2022-09-23T18:04:19.777Z,4.40
2022-09-23T18:06:47.290Z,4.18
2022-09-23T18:09:13.989Z,4.28
2022-09-23T18:11:46.749Z,4.53
2022-09-23T18:14:20.929Z,5.18
2022-09-23T18:16:48.898Z,4.70
2022-09-23T18:19:16.926Z,5.13
2022-09-23T18:21:44.748Z,4.60
2022-09-23T18:24:31.287Z,4.85
2022-09-23T18:26:59.662Z,4.82
2022-09-23T18:29:26.051Z,4.22
2022-09-23T18:31:52.418Z,5.00
2022-09-23T18:34:20.253Z,4.45
2022-09-23T18:36:46.641Z,4.38
2022-09-23T18:39:12.946Z,4.60
2022-09-23T18:41:40.383Z,4.85
2022-09-23T18:44:06.876Z,5.47
2022-09-23T18:46:33.307Z,6.22
2022-09-23T18:49:18.152Z,5.35
2022-09-23T18:51:52.481Z,4.72
2022-09-23T18:54:19.634Z,4.53
2022-09-23T18:56:46.442Z,4.43
2022-09-23T18:59:14.503Z,5.00
2022-09-23T19:01:40.955Z,4.45
2022-09-23T19:04:07.424Z,4.90
2022-09-23T19:06:34.781Z,5.00
2022-09-23T19:09:01.272Z,5.85
2022-09-23T19:11:27.899Z,5.22
2022-09-23T19:13:54.964Z,5.63
2022-09-23T19:16:22.601Z,8.55
2022-09-23T19:18:49.728Z,9.95
2022-09-23T19:21:17.113Z,10.10
2022-09-23T19:23:47.941Z,9.60
2022-09-23T19:26:15.643Z,10.00
2022-09-23T19:28:46.801Z,9.98
2022-09-23T19:31:17.001Z,9.60
2022-09-23T19:33:49.833Z,10.50
2022-09-23T19:36:16.732Z,17.40
2022-09-23T19:38:44.413Z,13.88
2022-09-23T19:41:11.217Z,11.10
2022-09-23T19:43:37.626Z,9.15
2022-09-23T19:46:04.563Z,8.98
2022-09-23T19:48:31.015Z,8.30
2022-09-23T19:50:57.326Z,7.80
2022-09-23T19:53:27.964Z,7.68
2022-09-23T19:55:56.051Z,6.82
2022-09-23T19:58:23.115Z,6.93
2022-09-23T20:00:49.558Z,6.25
2022-09-23T20:03:17.653Z,6.03
2022-09-23T20:05:44.203Z,5.53
2022-09-23T20:08:10.597Z,5.78
2022-09-23T20:10:38.299Z,5.50
2022-09-23T20:13:04.640Z,6.05
2022-09-23T20:15:31.055Z,6.22
2022-09-23T20:17:57.426Z,6.57
2022-09-23T20:20:23.762Z,6.28
2022-09-23T20:22:52.075Z,6.97
2022-09-23T20:25:18.394Z,7.53
2022-09-23T20:27:49.431Z,7.95
2022-09-23T20:30:15.903Z,8.02
2022-09-23T20:32:44.729Z,7.93
2022-09-23T20:35:11.457Z,7.80
2022-09-23T20:37:37.841Z,8.05
2022-09-23T20:40:04.685Z,8.40
2022-09-23T20:42:31.362Z,8.13
2022-09-23T20:44:57.931Z,8.88
2022-09-23T20:47:24.471Z,7.97
2022-09-23T20:49:50.855Z,8.80
2022-09-23T20:52:17.937Z,7.93
2022-09-23T20:54:44.374Z,7.88
2022-09-23T20:57:13.336Z,7.53
2022-09-23T20:59:40.546Z,7.28
2022-09-23T21:02:07.672Z,7.82
2022-09-23T21:04:34.999Z,7.53
2022-09-23T21:07:01.351Z,8.02
2022-09-23T21:09:28.690Z,7.50
2022-09-23T21:11:55.375Z,7.50
2022-09-23T21:14:22.445Z,6.97
2022-09-23T21:16:51.821Z,9.68
2022-09-23T21:19:19.239Z,9.40
2022-09-23T21:21:45.956Z,8.45
2022-09-23T21:24:40.023Z,8.10
2022-09-23T21:26:58.675Z,8.38
2022-09-23T21:29:25.179Z,8.30
2022-09-23T21:31:51.538Z,7.72
2022-09-23T21:34:18.023Z,7.85
2022-09-23T21:36:44.408Z,7.30
2022-09-23T21:39:11.368Z,7.40
2022-09-23T21:41:38.006Z,8.15
2022-09-23T21:44:04.758Z,8.55
2022-09-23T21:46:33.827Z,8.23
2022-09-23T21:49:03.332Z,8.98
2022-09-23T21:51:31.052Z,9.13
2022-09-23T21:53:58.136Z,9.98
2022-09-23T21:56:25.450Z,9.32
2022-09-23T21:58:53.227Z,9.50
2022-09-23T22:01:21.062Z,9.40
2022-09-23T22:03:51.771Z,10.15
2022-09-23T22:06:21.291Z,10.25
2022-09-23T22:08:52.027Z,9.32
2022-09-23T22:11:38.173Z,9.68
2022-09-23T22:14:05.699Z,9.35
2022-09-23T22:16:33.430Z,8.95
2022-09-23T22:19:01.387Z,9.05
2022-09-23T22:21:29.051Z,9.13
2022-09-23T22:24:02.552Z,8.93
2022-09-23T22:26:29.394Z,11.73
2022-09-23T22:29:14.561Z,10.80
2022-09-23T22:31:59.787Z,11.25
2022-09-23T22:34:48.365Z,11.50
2022-09-23T22:37:18.862Z,11.25
2022-09-23T22:39:45.278Z,10.98
2022-09-23T22:42:13.043Z,10.45
2022-09-23T22:44:39.422Z,11.30
2022-09-23T22:47:05.976Z,9.38
2022-09-23T22:49:32.441Z,8.18
2022-09-23T22:51:59.382Z,8.88
2022-09-23T22:54:33.680Z,7.60
2022-09-23T22:57:02.447Z,7.90
2022-09-23T22:59:28.821Z,9.20
2022-09-23T23:01:55.429Z,8.70
2022-09-23T23:04:22.006Z,9.70
2022-09-23T23:06:48.338Z,8.77
2022-09-23T23:09:16.101Z,8.45
2022-09-23T23:11:42.677Z,9.02
2022-09-23T23:14:12.912Z,9.40
2022-09-23T23:19:19.610Z,9.32
2022-09-23T23:21:46.276Z,9.52
2022-09-23T23:24:17.006Z,9.77
2022-09-23T23:26:43.669Z,10.60
2022-09-23T23:29:14.014Z,7.55
2022-09-23T23:31:40.739Z,7.43
2022-09-23T23:34:08.357Z,7.25
2022-09-23T23:36:34.804Z,7.57
2022-09-23T23:39:01.399Z,7.43
2022-09-23T23:41:28.126Z,7.00
2022-09-23T23:43:56.523Z,6.88
2022-09-23T23:46:25.587Z,8.02
2022-09-23T23:48:52.442Z,7.50
2022-09-23T23:51:19.169Z,7.55
2022-09-23T23:53:45.720Z,9.38
2022-09-23T23:56:14.846Z,9.45
2022-09-23T23:58:41.482Z,8.50
